Time;durP1;ratioP1;P1;durP2;ratioP2;P2;SDS_P1;SDS_P2;PMS_P1;PMS_P2;Temp;Humidity;BMP_temperature;BMP_pressure;BME280_temperature;BME280_humidity;BME280_pressure;Samples;Min_cycle;Max_cycle;Signal;HPM_P1;HPM_P2
2021/09/07 00:00:12;;;;;;;33.20;19.02;;;;;;;17.56;70.82;102539.72;5073598;28;20435;-47
2021/09/07 00:02:38;;;;;;;31.58;18.25;;;;;;;17.51;70.95;102539.66;5036635;28;20023;-49
2021/09/07 00:05:04;;;;;;;30.02;17.25;;;;;;;17.50;71.35;102544.94;5073259;28;20027;-47
2021/09/07 00:07:30;;;;;;;29.73;17.48;;;;;;;17.49;71.01;102537.88;5067732;28;20046;-54
2021/09/07 00:09:55;;;;;;;32.83;18.80;;;;;;;17.50;71.12;102543.19;5070519;28;20036;-48
2021/09/07 00:12:21;;;;;;;34.15;18.00;;;;;;;17.53;71.28;102540.56;5055094;28;20035;-49
2021/09/07 00:14:46;;;;;;;34.58;18.98;;;;;;;17.51;71.21;102538.78;5068678;28;20032;-48
2021/09/07 00:17:12;;;;;;;29.15;17.27;;;;;;;17.52;71.44;102535.28;5070040;28;20042;-50
2021/09/07 00:19:39;;;;;;;32.10;17.42;;;;;;;17.50;71.07;102535.28;5067612;28;20032;-50
2021/09/07 00:22:04;;;;;;;33.33;17.83;;;;;;;17.48;71.31;102533.47;5069293;28;20038;-48
2021/09/07 00:24:30;;;;;;;32.72;18.38;;;;;;;17.48;71.44;102528.19;5068166;28;20032;-48
2021/09/07 00:26:56;;;;;;;30.42;18.02;;;;;;;17.44;71.68;102525.50;5071139;28;20071;-49
2021/09/07 00:29:22;;;;;;;34.88;19.00;;;;;;;17.48;71.59;102523.81;5070360;28;20414;-48
2021/09/07 00:31:47;;;;;;;35.30;19.13;;;;;;;17.49;71.37;102522.94;5069734;28;20028;-51
2021/09/07 00:34:13;;;;;;;33.78;19.63;;;;;;;17.49;71.58;102522.06;5068881;28;20032;-52
2021/09/07 00:36:38;;;;;;;28.90;16.92;;;;;;;17.53;71.46;102519.47;5069031;28;20535;-49
2021/09/07 00:39:03;;;;;;;30.35;18.08;;;;;;;17.56;71.21;102529.19;5069697;28;20040;-48
2021/09/07 00:41:29;;;;;;;34.70;19.38;;;;;;;17.67;71.05;102520.53;5056234;28;20040;-48
2021/09/07 00:43:54;;;;;;;32.03;18.25;;;;;;;17.76;71.07;102512.72;5067005;28;20325;-51
2021/09/07 00:46:20;;;;;;;35.63;19.02;;;;;;;17.83;70.58;102514.53;5069992;28;20368;-49
2021/09/07 00:48:45;;;;;;;35.13;18.67;;;;;;;17.91;70.47;102509.34;5070931;28;20028;-53
2021/09/07 00:51:10;;;;;;;43.15;21.13;;;;;;;18.00;70.28;102514.69;5069359;28;20487;-48
2021/09/07 00:53:36;;;;;;;33.25;19.42;;;;;;;18.09;69.76;102508.63;5070434;28;20032;-51
2021/09/07 00:56:02;;;;;;;40.47;20.38;;;;;;;18.12;69.67;102512.16;5054398;28;20051;-50
2021/09/07 00:58:30;;;;;;;39.08;21.63;;;;;;;18.12;69.60;102512.16;5071160;28;20555;-51
2021/09/07 01:00:56;;;;;;;38.88;21.02;;;;;;;18.16;69.42;102510.44;5066897;28;20235;-50
2021/09/07 01:03:21;;;;;;;37.13;21.10;;;;;;;18.18;69.19;102508.69;5070794;28;20090;-51
2021/09/07 01:05:47;;;;;;;37.13;21.80;;;;;;;18.23;68.80;102510.50;5070810;28;20032;-51
2021/09/07 01:08:14;;;;;;;39.97;22.08;;;;;;;18.31;68.55;102499.09;5053038;28;20040;-50
2021/09/07 01:10:40;;;;;;;41.80;22.92;;;;;;;18.32;68.58;102511.44;5056324;28;20028;-48
2021/09/07 01:13:05;;;;;;;41.67;22.85;;;;;;;18.39;67.51;102506.22;5073603;28;20537;-49
2021/09/07 01:15:31;;;;;;;41.58;23.35;;;;;;;18.46;67.74;102504.50;5055776;28;20034;-52
2021/09/07 01:17:56;;;;;;;44.30;23.05;;;;;;;18.44;67.80;102498.31;5072797;28;20035;-49
2021/09/07 01:20:22;;;;;;;42.88;23.63;;;;;;;18.44;67.82;102500.97;5072539;28;21322;-52
2021/09/07 01:22:47;;;;;;;42.13;22.83;;;;;;;18.42;67.44;102500.94;5077271;28;20023;-49
2021/09/07 01:25:12;;;;;;;40.63;23.23;;;;;;;18.44;67.63;102500.97;5071389;28;20028;-47
2021/09/07 01:27:38;;;;;;;39.95;23.10;;;;;;;18.40;67.48;102494.78;5074366;28;20063;-51
2021/09/07 01:30:04;;;;;;;38.72;22.67;;;;;;;18.42;67.24;102493.00;5073062;28;20032;-52
2021/09/07 01:32:30;;;;;;;40.00;22.75;;;;;;;18.45;67.58;102500.09;5073659;28;20085;-51
2021/09/07 01:34:55;;;;;;;43.88;22.85;;;;;;;18.35;67.85;102493.88;5072772;28;20024;-53
2021/09/07 01:37:20;;;;;;;41.58;23.27;;;;;;;18.28;68.27;102485.88;5070308;28;20016;-52
2021/09/07 01:39:46;;;;;;;46.15;22.73;;;;;;;18.26;68.29;102488.50;5071562;28;20515;-51
2021/09/07 01:42:11;;;;;;;39.42;22.38;;;;;;;18.24;68.59;102487.59;5056795;28;20035;-48
2021/09/07 01:44:42;;;;;;;45.92;23.33;;;;;;;18.21;68.53;102487.59;5070575;28;20032;-47
2021/09/07 01:47:09;;;;;;;44.42;23.73;;;;;;;18.18;68.43;102485.81;5074446;28;20491;-49
2021/09/07 01:49:34;;;;;;;42.40;23.73;;;;;;;18.12;68.77;102479.59;5068848;28;20407;-50
2021/09/07 01:52:08;;;;;;;48.15;24.98;;;;;;;18.15;68.67;102480.53;5055587;28;20035;-50
2021/09/07 01:54:33;;;;;;;41.08;23.20;;;;;;;18.14;68.16;102494.59;5057576;28;20074;-52
2021/09/07 01:56:58;;;;;;;37.45;21.33;;;;;;;18.11;68.70;102488.41;5073580;28;20344;-49
2021/09/07 01:59:24;;;;;;;44.30;22.70;;;;;;;18.06;68.78;102488.34;5055817;28;20119;-47
2021/09/07 02:01:50;;;;;;;40.10;21.50;;;;;;;17.99;68.94;102490.94;5073349;28;20143;-51
2021/09/07 02:04:15;;;;;;;37.88;20.73;;;;;;;17.93;68.88;102491.75;5072118;28;20045;-52
2021/09/07 02:06:40;;;;;;;38.67;22.25;;;;;;;17.82;69.83;102488.13;5068834;28;20035;-48
2021/09/07 02:09:06;;;;;;;40.97;23.77;;;;;;;17.76;70.19;102491.59;5072760;28;20512;-49
2021/09/07 02:11:32;;;;;;;39.50;21.15;;;;;;;17.73;70.24;102491.59;5071268;28;20209;-50
2021/09/07 02:13:58;;;;;;;36.13;20.20;;;;;;;17.73;70.06;102496.88;5070744;28;20028;-48
2021/09/07 02:16:23;;;;;;;35.28;19.98;;;;;;;17.69;69.94;102505.59;5072769;28;20027;-49
2021/09/07 02:18:48;;;;;;;34.45;19.48;;;;;;;17.71;69.96;102501.22;5074745;28;20024;-48
2021/09/07 02:21:14;;;;;;;39.83;21.50;;;;;;;17.67;70.05;102493.28;5064828;28;20050;-47
2021/09/07 02:23:39;;;;;;;39.22;20.45;;;;;;;17.59;70.01;102490.53;5068257;28;20033;-48
2021/09/07 02:26:05;;;;;;;38.38;20.88;;;;;;;17.55;70.32;102487.84;5073534;28;20024;-51
2021/09/07 02:28:30;;;;;;;41.88;21.35;;;;;;;17.53;70.41;102489.56;5067738;28;20127;-50
2021/09/07 02:30:55;;;;;;;34.50;19.58;;;;;;;17.53;70.37;102486.94;5070915;28;20531;-52
2021/09/07 02:33:21;;;;;;;36.60;19.58;;;;;;;17.51;70.15;102484.28;5075146;28;20127;-52
2021/09/07 02:35:46;;;;;;;39.92;21.48;;;;;;;17.52;70.15;102480.78;5071421;28;20488;-52
2021/09/07 02:38:12;;;;;;;42.95;22.42;;;;;;;17.48;70.61;102486.00;5074103;28;20044;-51
2021/09/07 02:40:37;;;;;;;45.67;23.90;;;;;;;17.48;70.76;102486.00;5068852;28;20028;-52
2021/09/07 02:43:02;;;;;;;40.50;20.92;;;;;;;17.48;70.50;102489.53;5053751;28;20082;-47
2021/09/07 02:45:28;;;;;;;36.67;19.80;;;;;;;17.50;70.46;102492.19;5070982;28;20028;-49
2021/09/07 02:47:53;;;;;;;39.45;19.88;;;;;;;17.49;70.50;102490.41;5072017;28;20027;-49
2021/09/07 02:50:19;;;;;;;37.25;20.42;;;;;;;17.47;70.43;102492.16;5055961;28;20532;-49
2021/09/07 02:52:44;;;;;;;36.05;20.23;;;;;;;17.43;70.45;102489.50;5069926;28;21011;-51
2021/09/07 02:55:10;;;;;;;37.92;19.58;;;;;;;17.42;70.54;102487.72;5072807;28;20199;-50
2021/09/07 02:57:36;;;;;;;40.85;20.70;;;;;;;17.38;70.73;102490.31;5071181;28;20036;-48
2021/09/07 03:00:02;;;;;;;43.35;21.98;;;;;;;17.35;70.55;102488.50;5072487;28;20078;-48
2021/09/07 03:02:28;;;;;;;37.55;20.23;;;;;;;17.40;70.49;102480.66;5069298;28;20036;-50
2021/09/07 03:04:53;;;;;;;44.97;22.15;;;;;;;17.29;70.84;102477.91;5058778;28;20544;-49
2021/09/07 03:07:19;;;;;;;40.67;21.92;;;;;;;17.25;71.26;102480.50;5067972;28;20110;-50
2021/09/07 03:09:44;;;;;;;37.88;20.75;;;;;;;17.22;71.11;102477.81;5070856;28;20087;-51
2021/09/07 03:12:11;;;;;;;42.15;21.65;;;;;;;17.19;70.96;102481.31;5068673;28;20559;-51
2021/09/07 03:14:37;;;;;;;36.05;19.90;;;;;;;17.15;71.21;102476.84;5072897;28;20547;-47
2021/09/07 03:17:02;;;;;;;41.65;21.95;;;;;;;17.11;71.26;102476.81;5069861;28;20024;-48
2021/09/07 03:19:27;;;;;;;41.88;20.60;;;;;;;17.06;71.45;102473.22;5058753;28;20032;-48
2021/09/07 03:21:53;;;;;;;41.50;21.20;;;;;;;16.98;71.64;102476.66;5069574;28;20028;-49
2021/09/07 03:24:18;;;;;;;37.80;19.67;;;;;;;16.94;71.91;102471.34;5067992;28;20703;-49
2021/09/07 03:26:44;;;;;;;35.65;18.75;;;;;;;16.88;71.88;102472.16;5068700;28;20547;-50
2021/09/07 03:29:10;;;;;;;45.85;23.05;;;;;;;16.83;72.16;102476.44;5071670;28;20075;-49
2021/09/07 03:31:35;;;;;;;41.97;21.02;;;;;;;16.86;72.18;102475.59;5070725;28;20036;-50
2021/09/07 03:34:01;;;;;;;43.20;22.20;;;;;;;16.86;72.28;102468.59;5053596;28;20100;-49
2021/09/07 03:36:26;;;;;;;44.00;23.08;;;;;;;16.82;72.42;102473.81;5070782;28;20491;-51
2021/09/07 03:38:51;;;;;;;48.28;24.25;;;;;;;16.81;72.55;102472.94;5072602;28;20059;-51
2021/09/07 03:41:17;;;;;;;46.38;23.30;;;;;;;16.78;72.54;102471.97;5067742;28;20045;-49
2021/09/07 03:43:42;;;;;;;42.92;21.13;;;;;;;16.78;72.49;102470.22;5069066;28;20031;-47
2021/09/07 03:46:08;;;;;;;44.88;22.70;;;;;;;16.77;72.70;102468.47;5063466;28;20268;-48
2021/09/07 03:48:33;;;;;;;47.08;22.42;;;;;;;16.78;72.49;102478.13;5053237;28;20024;-51
2021/09/07 03:51:00;;;;;;;44.75;22.08;;;;;;;16.79;72.69;102477.28;5071552;28;20035;-52
2021/09/07 03:53:30;;;;;;;45.50;22.52;;;;;;;16.80;72.59;102473.78;5055606;28;20028;-49
2021/09/07 03:55:56;;;;;;;46.90;23.70;;;;;;;16.80;72.64;102470.25;5067982;28;20478;-47
2021/09/07 03:58:21;;;;;;;49.05;22.20;;;;;;;16.81;72.78;102469.41;5055620;28;20020;-50
2021/09/07 04:00:46;;;;;;;46.50;21.75;;;;;;;16.82;72.80;102474.69;5072215;28;20042;-48
2021/09/07 04:03:17;;;;;;;47.53;22.52;;;;;;;16.89;72.84;102471.28;5071145;28;20071;-50
2021/09/07 04:05:43;;;;;;;46.35;22.83;;;;;;;16.93;72.61;102469.56;5069776;28;20519;-49
2021/09/07 04:08:09;;;;;;;46.88;22.70;;;;;;;16.98;72.71;102459.97;5053340;28;20545;-47
2021/09/07 04:10:34;;;;;;;44.95;23.48;;;;;;;16.99;72.54;102467.00;5069230;28;20028;-51
2021/09/07 04:13:00;;;;;;;48.15;24.00;;;;;;;17.00;72.33;102469.66;5068502;28;20020;-47
2021/09/07 04:15:25;;;;;;;43.50;22.98;;;;;;;16.99;72.22;102461.72;5070721;28;20028;-53
2021/09/07 04:17:50;;;;;;;43.55;22.38;;;;;;;16.96;72.33;102459.03;5069716;28;20032;-49
2021/09/07 04:20:16;;;;;;;43.00;21.25;;;;;;;16.91;72.38;102469.53;5054278;28;20035;-49
2021/09/07 04:22:41;;;;;;;43.20;21.77;;;;;;;16.87;72.30;102461.59;5068161;28;20032;-52
2021/09/07 04:25:07;;;;;;;50.70;24.92;;;;;;;16.84;72.68;102469.44;5068710;28;20479;-52
2021/09/07 04:27:32;;;;;;;47.13;23.25;;;;;;;16.80;72.45;102462.34;5068576;28;20470;-52
2021/09/07 04:29:58;;;;;;;48.28;23.75;;;;;;;16.75;72.62;102470.22;5072421;28;20035;-46
2021/09/07 04:32:23;;;;;;;48.17;24.48;;;;;;;16.71;72.81;102481.53;5068173;28;20060;-51
2021/09/07 04:34:49;;;;;;;46.17;22.90;;;;;;;16.69;73.08;102485.03;5071380;28;20365;-49
2021/09/07 04:37:14;;;;;;;50.45;25.02;;;;;;;16.66;72.94;102480.59;5070189;28;20139;-49
2021/09/07 04:39:39;;;;;;;53.90;26.38;;;;;;;16.68;73.01;102478.00;5068430;28;20173;-48
2021/09/07 04:42:05;;;;;;;53.42;24.95;;;;;;;16.67;73.25;102482.38;5072449;28;20024;-48
2021/09/07 04:44:31;;;;;;;46.20;23.15;;;;;;;16.71;73.47;102486.81;5071960;28;20423;-49
2021/09/07 04:46:57;;;;;;;45.88;23.17;;;;;;;16.74;73.23;102483.34;5073103;28;20020;-47
2021/09/07 04:49:22;;;;;;;48.63;23.65;;;;;;;16.81;73.05;102488.72;5075653;28;20098;-48
2021/09/07 04:51:48;;;;;;;56.53;26.80;;;;;;;16.87;73.28;102485.28;5068238;28;20028;-48
2021/09/07 04:54:13;;;;;;;57.33;27.98;;;;;;;16.96;72.98;102482.75;5076847;28;20024;-48
2021/09/07 04:56:39;;;;;;;51.20;25.58;;;;;;;17.03;72.99;102485.50;5066292;28;20335;-48
2021/09/07 04:59:04;;;;;;;49.67;25.15;;;;;;;17.08;72.83;102482.91;5070929;28;20387;-53
2021/09/07 05:01:29;;;;;;;52.22;25.80;;;;;;;17.12;72.29;102481.22;5075411;28;20067;-52
2021/09/07 05:03:55;;;;;;;53.25;25.90;;;;;;;17.13;72.48;102480.34;5071609;28;20039;-49
2021/09/07 05:06:20;;;;;;;51.47;25.52;;;;;;;17.15;72.29;102476.84;5073299;28;20136;-51
2021/09/07 05:08:46;;;;;;;49.15;25.20;;;;;;;17.17;72.45;102479.50;5074339;28;20034;-51
2021/09/07 05:11:11;;;;;;;55.08;27.10;;;;;;;17.17;72.31;102479.50;5057751;28;20546;-48
2021/09/07 05:13:37;;;;;;;55.20;26.85;;;;;;;17.21;72.13;102481.31;5070250;28;20417;-51
2021/09/07 05:16:02;;;;;;;50.58;25.90;;;;;;;17.24;72.36;102474.34;5070733;28;20062;-53
2021/09/07 05:18:27;;;;;;;56.95;28.10;;;;;;;17.28;72.37;102484.03;5070897;28;20020;-50
2021/09/07 05:20:53;;;;;;;50.40;26.65;;;;;;;17.33;72.18;102487.59;5069694;28;20411;-49
2021/09/07 05:23:18;;;;;;;55.47;27.50;;;;;;;17.42;71.80;102490.34;5070198;28;20016;-47
2021/09/07 05:25:44;;;;;;;53.83;26.88;;;;;;;17.49;71.76;102488.66;5070396;28;20016;-48
2021/09/07 05:28:09;;;;;;;53.75;26.85;;;;;;;17.58;71.48;102487.88;5067779;28;20472;-47
2021/09/07 05:30:34;;;;;;;50.83;26.70;;;;;;;17.66;71.05;102488.88;5072302;28;20027;-49
2021/09/07 05:33:00;;;;;;;52.67;26.33;;;;;;;17.75;71.00;102484.56;5066255;28;20105;-48
2021/09/07 05:35:25;;;;;;;56.85;27.23;;;;;;;17.83;70.85;102487.28;5068523;28;20020;-49
2021/09/07 05:37:51;;;;;;;53.45;27.35;;;;;;;17.95;70.70;102491.78;5070685;28;20024;-51
2021/09/07 05:40:16;;;;;;;55.38;26.80;;;;;;;18.02;70.63;102491.84;5069751;28;20526;-53
2021/09/07 05:42:43;;;;;;;49.95;26.52;;;;;;;18.13;69.93;102495.44;5070153;28;20081;-51
2021/09/07 05:45:13;;;;;;;49.42;26.73;;;;;;;18.24;69.21;102499.06;5069788;28;20020;-51
2021/09/07 05:47:39;;;;;;;52.00;26.67;;;;;;;18.34;69.33;102500.03;5071306;28;20061;-48
2021/09/07 05:50:05;;;;;;;48.83;25.58;;;;;;;18.42;69.24;102494.81;5069956;28;20036;-51
2021/09/07 05:52:31;;;;;;;48.90;25.75;;;;;;;18.49;69.18;102493.94;5070142;28;20391;-49
2021/09/07 05:54:56;;;;;;;47.53;26.35;;;;;;;18.58;68.83;102494.06;5066926;28;20039;-49
2021/09/07 05:57:22;;;;;;;48.78;26.15;;;;;;;18.68;68.29;102490.56;5051789;28;20052;-50
2021/09/07 05:59:47;;;;;;;48.25;26.50;;;;;;;18.78;68.49;102496.81;5069777;28;20455;-51
2021/09/07 06:02:13;;;;;;;54.40;28.20;;;;;;;18.86;68.16;102492.44;5057382;28;20399;-47
2021/09/07 06:04:39;;;;;;;51.47;26.90;;;;;;;18.91;68.07;102490.69;5071072;28;20036;-51
2021/09/07 06:07:04;;;;;;;50.08;26.67;;;;;;;19.03;67.11;102490.75;5047918;28;20071;-47
2021/09/07 06:09:29;;;;;;;48.65;27.00;;;;;;;19.12;67.40;102493.44;5066706;28;20035;-48
2021/09/07 06:11:55;;;;;;;53.63;27.60;;;;;;;19.27;67.01;102497.91;5068846;28;20031;-48
2021/09/07 06:14:20;;;;;;;51.25;26.98;;;;;;;19.40;65.42;102497.03;5071901;28;20020;-50
2021/09/07 06:16:46;;;;;;;50.78;27.25;;;;;;;19.55;64.80;102502.41;5072915;28;20468;-54
2021/09/07 06:19:11;;;;;;;46.65;25.80;;;;;;;19.75;64.70;102498.06;5070831;28;20028;-49
2021/09/07 06:21:36;;;;;;;52.72;26.98;;;;;;;19.77;65.32;102503.31;5069645;28;20199;-50
2021/09/07 06:24:02;;;;;;;51.22;27.17;;;;;;;19.95;64.33;102497.16;5067311;28;20599;-52
2021/09/07 06:26:27;;;;;;;47.15;26.70;;;;;;;20.04;64.66;102502.47;5071186;28;20548;-52
2021/09/07 06:28:53;;;;;;;49.22;26.08;;;;;;;20.22;63.02;102506.00;5075138;28;20187;-53
2021/09/07 06:31:18;;;;;;;44.85;23.98;;;;;;;20.39;63.29;102498.06;5069988;28;20027;-50
2021/09/07 06:33:44;;;;;;;50.63;25.40;;;;;;;20.50;63.07;102504.22;5075385;28;20032;-53
2021/09/07 06:36:09;;;;;;;49.70;26.75;;;;;;;20.58;64.47;102502.47;5072373;28;20396;-52
2021/09/07 06:38:34;;;;;;;53.55;26.92;;;;;;;20.77;64.27;102499.75;5069976;28;20470;-48
2021/09/07 06:41:00;;;;;;;47.22;25.25;;;;;;;20.97;62.56;102500.59;5068441;28;20039;-48
2021/09/07 06:43:25;;;;;;;47.72;25.65;;;;;;;21.25;61.94;102504.91;5068587;28;20035;-51
2021/09/07 06:45:51;;;;;;;49.78;25.42;;;;;;;21.39;61.81;102508.38;5070386;28;20506;-50
2021/09/07 06:48:16;;;;;;;45.97;25.35;;;;;;;21.45;60.92;102507.47;5070034;28;20823;-51
2021/09/07 06:50:42;;;;;;;45.03;25.20;;;;;;;21.48;61.15;102514.50;5069508;28;20635;-53
2021/09/07 06:53:07;;;;;;;44.75;25.65;;;;;;;21.52;59.80;102517.16;5070725;28;20032;-52
2021/09/07 06:55:33;;;;;;;45.85;25.95;;;;;;;21.61;61.95;102518.84;5067308;28;20240;-49
2021/09/07 06:57:58;;;;;;;44.35;25.98;;;;;;;21.73;61.92;102509.03;5068100;28;20642;-51
2021/09/07 07:00:24;;;;;;;47.92;26.10;;;;;;;21.74;61.64;102508.16;5067415;28;20455;-50
2021/09/07 07:02:50;;;;;;;47.50;26.45;;;;;;;21.78;60.60;102506.34;5062681;28;20032;-47
2021/09/07 07:05:15;;;;;;;47.08;26.45;;;;;;;21.91;61.83;102507.13;5035314;28;20028;-47
2021/09/07 07:07:41;;;;;;;47.35;26.25;;;;;;;22.13;61.76;102508.78;5064584;28;20066;-50
2021/09/07 07:10:07;;;;;;;45.00;26.85;;;;;;;22.25;60.45;102512.22;5071442;28;20050;-49
2021/09/07 07:12:32;;;;;;;47.25;26.77;;;;;;;21.82;59.62;102514.28;5065250;28;20204;-52
2021/09/07 07:14:58;;;;;;;49.90;28.00;;;;;;;21.75;58.00;102509.03;5069481;28;20066;-49
2021/09/07 07:17:23;;;;;;;48.10;27.45;;;;;;;21.79;57.99;102510.75;5059943;28;20057;-51
2021/09/07 07:19:51;;;;;;;51.53;27.55;;;;;;;21.74;59.18;102513.47;5067342;28;20443;-49
2021/09/07 07:22:16;;;;;;;51.03;27.48;;;;;;;22.00;59.77;102520.38;5067526;28;20085;-48
2021/09/07 07:24:41;;;;;;;49.72;27.02;;;;;;;22.19;59.28;102520.22;5071506;28;20024;-49
2021/09/07 07:27:07;;;;;;;45.97;27.98;;;;;;;22.63;56.15;102517.13;5054902;28;20459;-49
2021/09/07 07:29:32;;;;;;;45.63;27.02;;;;;;;23.53;54.15;102516.09;5072604;28;20036;-52
2021/09/07 07:31:58;;;;;;;46.40;26.50;;;;;;;23.91;52.98;102515.50;5069663;28;20384;-51
2021/09/07 07:34:23;;;;;;;46.38;26.30;;;;;;;24.96;51.16;102514.53;5070521;28;20459;-51
2021/09/07 07:36:49;;;;;;;43.90;25.90;;;;;;;25.60;49.58;102518.50;5071590;28;20024;-47
2021/09/07 07:39:14;;;;;;;42.70;25.73;;;;;;;25.61;47.90;102516.72;5072555;28;20362;-51
2021/09/07 07:41:39;;;;;;;40.05;25.40;;;;;;;25.69;48.88;102523.63;5050858;28;20119;-51
2021/09/07 07:44:05;;;;;;;42.33;25.52;;;;;;;25.98;47.14;102519.41;5074557;28;20055;-47
2021/09/07 07:46:30;;;;;;;40.47;25.50;;;;;;;25.73;48.29;102519.97;5058479;28;20024;-49
2021/09/07 07:48:56;;;;;;;40.47;25.38;;;;;;;25.33;50.56;102519.06;5067619;28;20904;-52
2021/09/07 07:51:21;;;;;;;127.78;28.17;;;;;;;25.45;47.85;102516.13;5071746;28;20123;-48
2021/09/07 07:53:46;;;;;;;42.35;25.33;;;;;;;25.19;48.92;102516.69;5064670;28;20051;-51
2021/09/07 07:56:12;;;;;;;41.13;23.25;;;;;;;25.58;46.90;102532.78;5071841;28;20039;-52
2021/09/07 07:58:38;;;;;;;42.55;24.08;;;;;;;25.43;48.56;102534.84;5058511;28;20028;-47
2021/09/07 08:01:04;;;;;;;36.47;21.08;;;;;;;25.90;47.67;102532.94;5071570;28;20035;-50
2021/09/07 08:03:29;;;;;;;38.88;23.80;;;;;;;25.71;49.20;102529.81;5068933;28;20024;-48
2021/09/07 08:05:54;;;;;;;36.40;22.45;;;;;;;25.97;46.78;102533.66;5051642;28;20051;-48
2021/09/07 08:08:20;;;;;;;32.35;21.98;;;;;;;26.37;45.82;102530.88;5068020;28;20323;-48
2021/09/07 08:10:45;;;;;;;31.25;21.05;;;;;;;26.56;46.19;102532.16;5070335;28;20019;-48
2021/09/07 08:13:10;;;;;;;32.08;20.63;;;;;;;26.88;43.38;102524.16;5069322;28;20365;-51
2021/09/07 08:15:36;;;;;;;29.58;20.33;;;;;;;26.80;43.32;102527.91;5052538;28;20032;-50
2021/09/07 08:18:01;;;;;;;29.05;19.80;;;;;;;26.96;43.99;102529.25;5051245;28;20476;-48
2021/09/07 08:20:30;;;;;;;33.00;19.67;;;;;;;26.86;42.90;102531.31;5051523;28;20464;-51
2021/09/07 08:22:56;;;;;;;28.90;18.75;;;;;;;26.62;44.58;102538.22;5066748;28;20109;-47
2021/09/07 08:25:22;;;;;;;40.00;18.23;;;;;;;26.36;46.11;102535.34;5070469;28;21089;-49
2021/09/07 08:27:47;;;;;;;33.42;19.42;;;;;;;25.82;47.56;102537.56;5063606;28;20043;-52
2021/09/07 08:30:14;;;;;;;29.15;19.17;;;;;;;25.69;46.59;102530.75;5069953;28;20443;-50
2021/09/07 08:32:40;;;;;;;29.20;19.05;;;;;;;25.89;45.76;102531.16;5068424;28;20028;-49
2021/09/07 08:35:07;;;;;;;31.02;20.02;;;;;;;25.79;46.54;102529.66;5066078;28;20089;-48
2021/09/07 08:37:33;;;;;;;29.42;18.73;;;;;;;26.04;48.05;102533.50;5067789;28;20290;-49
2021/09/07 08:39:58;;;;;;;28.05;17.95;;;;;;;25.91;46.65;102532.03;5070084;28;20494;-49
2021/09/07 08:42:23;;;;;;;27.85;18.98;;;;;;;25.98;46.38;102528.28;5067151;28;20424;-51
2021/09/07 08:44:49;;;;;;;28.15;17.55;;;;;;;26.15;45.44;102528.75;5069039;28;20688;-49
2021/09/07 08:47:16;;;;;;;30.13;19.15;;;;;;;26.32;44.69;102528.34;5065903;28;20060;-52
2021/09/07 08:49:43;;;;;;;28.70;18.70;;;;;;;26.48;45.97;102526.13;5051624;28;20027;-52
2021/09/07 08:52:11;;;;;;;31.73;17.73;;;;;;;26.59;44.88;102527.59;5053839;28;20471;-52
2021/09/07 08:54:36;;;;;;;26.42;17.88;;;;;;;26.52;45.26;102528.69;5051472;28;21339;-51
2021/09/07 08:57:01;;;;;;;28.08;18.90;;;;;;;26.46;44.65;102531.53;5051070;28;20039;-47
2021/09/07 08:59:28;;;;;;;31.00;17.70;;;;;;;26.48;48.63;102534.16;5067136;28;20076;-50
2021/09/07 09:01:56;;;;;;;26.38;17.70;;;;;;;26.46;48.20;102527.97;5071000;28;20594;-50
2021/09/07 09:04:28;;;;;;;27.75;17.67;;;;;;;26.29;48.02;102528.41;5025790;28;20151;-52
2021/09/07 09:06:53;;;;;;;28.13;17.95;;;;;;;26.40;47.89;102523.69;5070487;28;20543;-51
2021/09/07 09:09:19;;;;;;;27.08;16.27;;;;;;;26.59;45.28;102521.38;5071633;28;20032;-50
2021/09/07 09:11:49;;;;;;;28.42;17.73;;;;;;;26.63;47.08;102529.28;5067912;28;20032;-50
2021/09/07 09:14:41;;;;;;;31.52;18.90;;;;;;;26.82;44.02;102524.31;5068836;28;20046;-47
2021/09/07 09:17:18;;;;;;;29.38;17.73;;;;;;;26.96;49.63;102529.25;5068034;28;20028;-51
2021/09/07 09:19:57;;;;;;;31.08;17.75;;;;;;;26.99;47.35;102529.19;5069757;28;20681;-48
2021/09/07 09:22:48;;;;;;;29.05;19.17;;;;;;;27.04;44.51;102525.47;5051452;28;20032;-52
2021/09/07 09:25:19;;;;;;;29.52;17.73;;;;;;;27.18;44.31;102524.19;5054071;28;20050;-51
2021/09/07 09:27:45;;;;;;;29.35;18.33;;;;;;;27.17;42.52;102517.06;5068426;28;20415;-52
2021/09/07 09:30:13;;;;;;;29.63;18.27;;;;;;;27.11;47.81;102520.81;5069655;28;20028;-51
2021/09/07 09:32:47;;;;;;;29.23;17.17;;;;;;;27.18;43.89;102517.03;5070981;28;20712;-52
2021/09/07 09:35:13;;;;;;;26.95;17.83;;;;;;;27.38;41.52;102524.47;5069164;28;20046;-52
2021/09/07 09:37:52;;;;;;;28.30;16.45;;;;;;;27.12;43.96;102519.00;5073278;28;20038;-51
2021/09/07 09:40:18;;;;;;;26.33;16.02;;;;;;;27.15;42.70;102511.75;5068857;28;20040;-49
2021/09/07 09:42:43;;;;;;;28.42;17.35;;;;;;;27.03;43.19;102520.13;5057184;28;20028;-52
2021/09/07 09:45:09;;;;;;;28.40;17.48;;;;;;;26.83;42.99;102506.44;5071890;28;20024;-51
2021/09/07 09:47:39;;;;;;;24.13;16.20;;;;;;;27.14;43.41;102504.63;5067828;28;20059;-52
2021/09/07 09:50:06;;;;;;;25.13;15.43;;;;;;;27.22;41.36;102507.09;5070627;28;20039;-49
2021/09/07 09:52:38;;;;;;;25.60;16.63;;;;;;;27.21;40.55;102502.66;5069216;28;20032;-50
2021/09/07 09:55:05;;;;;;;30.25;17.35;;;;;;;27.01;41.86;102495.25;5051494;28;20044;-50
2021/09/07 09:57:32;;;;;;;26.08;16.13;;;;;;;27.25;43.42;102496.31;5054510;28;20028;-50
2021/09/07 09:59:58;;;;;;;25.63;15.27;;;;;;;27.42;42.90;102502.88;5065381;28;20117;-49
2021/09/07 10:02:24;;;;;;;24.20;16.15;;;;;;;27.34;39.92;102496.88;5054154;28;20058;-53
2021/09/07 10:04:50;;;;;;;22.17;14.88;;;;;;;27.47;41.13;102497.38;5051806;28;20031;-51
2021/09/07 10:07:17;;;;;;;21.92;14.93;;;;;;;27.77;39.87;102493.75;5050300;28;20111;-53
2021/09/07 10:09:43;;;;;;;24.27;15.48;;;;;;;27.68;41.13;102493.19;5052285;28;20040;-50
2021/09/07 10:12:23;;;;;;;22.38;15.43;;;;;;;27.82;40.58;102494.47;5068164;28;20032;-50
2021/09/07 10:14:58;;;;;;;26.30;14.57;;;;;;;28.05;40.35;102499.09;5052904;28;20145;-48
2021/09/07 10:17:29;;;;;;;20.98;14.88;;;;;;;28.03;39.40;102495.56;5054259;28;20353;-53
2021/09/07 10:25:48;;;;;;;22.60;15.10;;;;;;;27.99;38.69;102493.06;5047752;28;20036;-49
2021/09/07 10:28:37;;;;;;;24.02;15.38;;;;;;;28.04;38.66;102494.66;5061105;28;20016;-50
2021/09/07 10:31:37;;;;;;;22.02;14.77;;;;;;;28.04;41.70;102497.34;5066239;28;20082;-50
2021/09/07 10:34:02;;;;;;;21.98;14.25;;;;;;;28.15;41.37;102491.63;5070845;28;20125;-48
2021/09/07 10:36:31;;;;;;;22.42;14.90;;;;;;;27.40;40.77;102485.97;5052513;28;20043;-50
2021/09/07 10:39:03;;;;;;;20.35;14.75;;;;;;;27.74;38.26;102487.63;5067295;28;20067;-50
2021/09/07 10:41:34;;;;;;;25.10;15.07;;;;;;;27.83;37.08;102484.63;5070966;28;20028;-49
2021/09/07 10:44:07;;;;;;;23.88;16.13;;;;;;;27.46;40.18;102479.56;5068054;28;20024;-47
2021/09/07 10:46:45;;;;;;;25.02;15.77;;;;;;;27.74;40.59;102474.22;5071136;28;20013;-48
2021/09/07 10:49:27;;;;;;;24.30;15.18;;;;;;;27.84;41.16;102465.81;5070003;28;20050;-50
2021/09/07 10:52:25;;;;;;;21.73;15.18;;;;;;;27.81;40.70;102468.59;5067931;28;20039;-52
2021/09/07 10:54:53;;;;;;;21.10;14.70;;;;;;;27.72;40.19;102463.56;5041650;28;20363;-53
2021/09/07 11:00:09;;;;;;;21.85;14.00;;;;;;;27.54;39.38;102461.47;5066751;28;20591;-51
2021/09/07 11:02:36;;;;;;;20.38;12.35;;;;;;;27.88;39.63;102460.34;5058912;28;20033;-50
2021/09/07 11:05:06;;;;;;;22.75;15.40;;;;;;;27.79;40.10;102462.44;5067130;28;20078;-52
2021/09/07 11:07:41;;;;;;;25.65;15.70;;;;;;;27.98;38.56;102451.09;5065787;28;20055;-51
2021/09/07 11:10:27;;;;;;;22.75;15.95;;;;;;;27.83;37.99;102453.34;5064948;28;20036;-53
2021/09/07 11:13:01;;;;;;;23.33;15.40;;;;;;;27.87;40.02;102458.63;5041067;28;20048;-49
2021/09/07 11:15:29;;;;;;;21.60;15.50;;;;;;;27.98;39.14;102451.09;5064741;28;20115;-48